Time;durP1;ratioP1;P1;durP2;ratioP2;P2;SDS_P1;SDS_P2;PMS_P1;PMS_P2;Temp;Humidity;BMP_temperature;BMP_pressure;BME280_temperature;BME280_humidity;BME280_pressure;Samples;Min_cycle;Max_cycle;Signal;HPM_P1;HPM_P2
2021/04/01 00:00:12;;;;;;;43.00;20.95;;;15.70;73.20;;;;;;5075703;28;20154;-79
2021/04/01 00:02:38;;;;;;;46.85;21.05;;;15.70;73.30;;;;;;5075402;28;20024;-79
2021/04/01 00:05:06;;;;;;;48.10;21.15;;;15.70;73.50;;;;;;5074368;28;20040;-79
2021/04/01 00:07:32;;;;;;;41.28;20.98;;;15.70;73.70;;;;;;5073800;28;20116;-80
2021/04/01 00:09:58;;;;;;;43.42;19.23;;;15.70;73.90;;;;;;5075409;28;20032;-79
2021/04/01 00:12:24;;;;;;;43.72;20.42;;;15.60;74.20;;;;;;5075328;28;20659;-79
2021/04/01 00:14:50;;;;;;;44.65;20.30;;;15.60;74.50;;;;;;5074231;28;20028;-79
2021/04/01 00:17:16;;;;;;;49.25;21.02;;;15.60;75.50;;;;;;5075260;28;20063;-79
2021/04/01 00:19:42;;;;;;;48.13;21.65;;;15.60;74.80;;;;;;5075343;28;20025;-79
2021/04/01 00:22:07;;;;;;;40.47;20.42;;;15.60;74.90;;;;;;5075000;28;20036;-79
2021/04/01 00:24:33;;;;;;;46.60;21.63;;;15.50;75.10;;;;;;5075207;28;20017;-79
2021/04/01 00:26:59;;;;;;;45.15;21.98;;;15.50;75.20;;;;;;5075129;28;20048;-79
2021/04/01 00:29:25;;;;;;;49.10;22.42;;;15.50;75.30;;;;;;5075091;28;20024;-79
2021/04/01 00:31:52;;;;;;;43.97;21.50;;;15.50;75.50;;;;;;5075026;28;20445;-79
2021/04/01 00:34:18;;;;;;;50.60;21.77;;;15.50;75.60;;;;;;5092262;28;20054;-79
2021/04/01 00:36:44;;;;;;;45.92;20.77;;;15.50;75.70;;;;;;5095222;28;20382;-79
2021/04/01 00:39:09;;;;;;;44.15;20.80;;;15.50;75.80;;;;;;5094884;28;20063;-79
2021/04/01 00:41:38;;;;;;;43.95;21.10;;;15.50;76.00;;;;;;5095166;28;20091;-79
2021/04/01 00:44:04;;;;;;;48.40;22.02;;;15.50;76.10;;;;;;5080568;28;20083;-79
2021/04/01 00:46:30;;;;;;;49.47;21.33;;;15.40;76.50;;;;;;5074785;28;20082;-79
2021/04/01 00:48:56;;;;;;;52.45;22.20;;;15.40;76.70;;;;;;5074545;28;20039;-79
2021/04/01 00:51:22;;;;;;;49.10;21.48;;;15.40;76.90;;;;;;5073335;28;20382;-79
2021/04/01 00:53:48;;;;;;;48.33;21.00;;;15.40;77.00;;;;;;5074277;28;20032;-79
2021/04/01 00:56:14;;;;;;;50.13;23.65;;;15.40;77.10;;;;;;5074290;28;20020;-79
2021/04/01 00:58:40;;;;;;;49.08;21.20;;;15.40;77.10;;;;;;5074333;28;20037;-79
2021/04/01 01:01:31;;;;;;;50.80;22.50;;;15.40;77.10;;;;;;5074130;28;20085;-79
2021/04/01 01:03:57;;;;;;;49.78;22.92;;;15.30;77.50;;;;;;5072788;28;20037;-79
2021/04/01 01:06:22;;;;;;;46.92;21.63;;;15.30;77.80;;;;;;5074087;28;20021;-79
2021/04/01 01:08:48;;;;;;;47.60;20.98;;;15.30;77.80;;;;;;5074186;28;20060;-79
2021/04/01 01:11:14;;;;;;;49.78;22.85;;;15.30;77.90;;;;;;5074068;28;20024;-79
2021/04/01 01:13:40;;;;;;;54.55;22.88;;;15.20;78.10;;;;;;5074111;28;20103;-79
2021/04/01 01:16:06;;;;;;;54.13;22.52;;;15.20;78.20;;;;;;5074146;28;20020;-79
2021/04/01 01:18:32;;;;;;;51.17;22.17;;;15.20;78.10;;;;;;5072820;28;20479;-79
2021/04/01 01:20:59;;;;;;;53.97;22.60;;;15.30;78.10;;;;;;5073752;28;20043;-79
2021/04/01 01:23:26;;;;;;;44.97;20.65;;;15.30;77.90;;;;;;5072572;28;20068;-79
2021/04/01 01:25:56;;;;;;;53.90;24.15;;;15.30;77.70;;;;;;5073627;28;20059;-79
2021/04/01 01:28:22;;;;;;;46.05;20.92;;;15.30;77.60;;;;;;5073811;28;20483;-79
2021/04/01 01:30:49;;;;;;;51.03;21.98;;;15.30;77.80;;;;;;5073829;28;20517;-79
2021/04/01 01:33:18;;;;;;;46.60;21.00;;;15.30;77.80;;;;;;5073714;28;20031;-79
2021/04/01 01:35:46;;;;;;;47.63;20.55;;;15.30;77.90;;;;;;5073694;28;20020;-79
2021/04/01 01:38:12;;;;;;;46.72;21.52;;;15.20;78.00;;;;;;5073487;28;20082;-79
2021/04/01 01:40:38;;;;;;;45.47;21.25;;;15.20;77.80;;;;;;5072365;28;20024;-79
2021/04/01 01:43:07;;;;;;;51.05;21.75;;;15.20;77.90;;;;;;5073600;28;20024;-79
2021/04/01 01:45:34;;;;;;;47.60;21.73;;;15.20;77.70;;;;;;5072279;28;20036;-79
2021/04/01 01:48:00;;;;;;;42.92;20.63;;;15.20;77.60;;;;;;5072927;28;20028;-80
2021/04/01 01:50:30;;;;;;;48.65;21.27;;;15.20;77.40;;;;;;5073637;28;20055;-79
2021/04/01 01:52:56;;;;;;;45.30;20.42;;;15.20;77.20;;;;;;5072033;28;20036;-79
2021/04/01 01:55:24;;;;;;;44.53;19.70;;;15.30;77.10;;;;;;5072730;28;20048;-79
2021/04/01 01:57:50;;;;;;;45.88;20.20;;;15.20;76.80;;;;;;5073307;28;20024;-79
2021/04/01 02:00:27;;;;;;;46.35;19.55;;;15.20;76.90;;;;;;5073337;28;20478;-79
2021/04/01 02:02:57;;;;;;;44.92;19.58;;;15.20;76.60;;;;;;5073258;28;20482;-79
2021/04/01 02:05:25;;;;;;;42.53;19.10;;;15.30;76.60;;;;;;5073303;28;20029;-79
2021/04/01 02:07:52;;;;;;;44.55;19.42;;;15.30;76.40;;;;;;5071849;28;20098;-79
2021/04/01 02:10:40;;;;;;;50.00;20.35;;;15.30;76.30;;;;;;5073276;28;20021;-79
2021/04/01 02:13:07;;;;;;;38.53;18.23;;;15.30;76.00;;;;;;5053604;28;20029;-79
2021/04/01 02:15:38;;;;;;;45.47;18.98;;;15.20;75.80;;;;;;5053081;28;20043;-79
2021/04/01 02:18:12;;;;;;;41.05;17.50;;;15.30;75.70;;;;;;5053209;28;20032;-79
2021/04/01 02:20:41;;;;;;;48.50;19.92;;;15.30;75.30;;;;;;5053117;28;20028;-79
2021/04/01 02:23:12;;;;;;;51.40;19.23;;;15.30;75.20;;;;;;5052712;28;20048;-79
2021/04/01 02:25:40;;;;;;;40.25;17.83;;;15.30;75.20;;;;;;5051633;28;20564;-79
2021/04/01 02:28:07;;;;;;;43.40;18.38;;;15.30;75.10;;;;;;5051727;28;20037;-80
2021/04/01 02:30:34;;;;;;;47.15;18.48;;;15.30;74.90;;;;;;5052888;28;20021;-79
2021/04/01 02:33:00;;;;;;;40.45;18.15;;;15.30;75.00;;;;;;5061375;28;20020;-79
2021/04/01 02:35:26;;;;;;;41.40;17.15;;;15.30;75.10;;;;;;5072976;28;20021;-79
2021/04/01 02:37:52;;;;;;;33.40;16.80;;;15.30;75.00;;;;;;5072845;28;20025;-79
2021/04/01 02:40:18;;;;;;;45.65;18.45;;;15.30;74.80;;;;;;5071301;28;20031;-79
2021/04/01 02:42:44;;;;;;;42.67;17.83;;;15.30;74.80;;;;;;5072738;28;20029;-79
2021/04/01 02:45:12;;;;;;;38.10;17.33;;;15.30;75.60;;;;;;5072659;28;20036;-79
2021/04/01 02:47:38;;;;;;;50.08;18.95;;;15.20;74.90;;;;;;5071531;28;20417;-79
2021/04/01 02:50:06;;;;;;;39.05;17.15;;;15.20;74.90;;;;;;5072813;28;20024;-79
2021/04/01 02:52:32;;;;;;;38.88;17.73;;;15.20;74.90;;;;;;5072105;28;20086;-79
2021/04/01 02:54:58;;;;;;;40.00;16.95;;;15.20;74.90;;;;;;5072721;28;20024;-79
2021/04/01 02:57:24;;;;;;;43.33;17.65;;;15.20;75.00;;;;;;5072641;28;20475;-79
2021/04/01 02:59:49;;;;;;;40.05;16.73;;;15.10;74.90;;;;;;5072436;28;20099;-79
2021/04/01 03:02:16;;;;;;;39.50;17.42;;;15.10;74.90;;;;;;5072414;28;20112;-79
2021/04/01 03:04:42;;;;;;;31.23;15.85;;;15.10;74.90;;;;;;5071342;28;20415;-79
2021/04/01 03:07:08;;;;;;;44.78;17.85;;;15.10;75.00;;;;;;5072944;28;20027;-79
2021/04/01 03:09:34;;;;;;;41.65;16.85;;;15.10;75.10;;;;;;5076614;28;20020;-79
2021/04/01 03:12:01;;;;;;;49.28;17.33;;;15.10;75.20;;;;;;5076470;28;20021;-79
2021/04/01 03:14:27;;;;;;;36.33;16.65;;;15.10;75.20;;;;;;5075202;28;20112;-79
2021/04/01 03:16:53;;;;;;;40.72;16.58;;;15.00;75.10;;;;;;5076426;28;20048;-79
2021/04/01 03:19:19;;;;;;;33.05;15.75;;;15.00;75.00;;;;;;5076062;28;20640;-79
2021/04/01 03:21:45;;;;;;;42.65;17.15;;;15.00;74.90;;;;;;5076027;28;20025;-79
2021/04/01 03:24:12;;;;;;;40.75;16.63;;;15.10;74.70;;;;;;5076218;28;20702;-79
2021/04/01 03:26:39;;;;;;;37.63;15.95;;;15.10;74.50;;;;;;5075811;28;20089;-79
2021/04/01 03:29:05;;;;;;;42.88;15.40;;;15.10;74.30;;;;;;5076019;28;20081;-79
2021/04/01 03:31:30;;;;;;;43.63;16.90;;;15.10;73.70;;;;;;5075870;28;20032;-79
2021/04/01 03:33:56;;;;;;;36.75;15.85;;;15.10;73.80;;;;;;5074806;28;20028;-79
2021/04/01 03:36:22;;;;;;;38.42;15.60;;;15.10;73.50;;;;;;5074804;28;20016;-79
2021/04/01 03:38:49;;;;;;;37.55;15.00;;;15.20;73.60;;;;;;5075969;28;20489;-79
2021/04/01 03:41:15;;;;;;;32.45;14.88;;;15.10;73.30;;;;;;5070065;28;20025;-79
2021/04/01 03:43:41;;;;;;;36.25;15.57;;;15.20;73.10;;;;;;5071776;28;20548;-79
2021/04/01 03:46:07;;;;;;;36.88;15.25;;;15.20;72.90;;;;;;5075707;28;20040;-79
2021/04/01 03:48:33;;;;;;;34.33;14.20;;;15.20;73.00;;;;;;5074504;28;20055;-79
2021/04/01 03:50:59;;;;;;;36.75;14.65;;;15.20;72.90;;;;;;5074557;28;20092;-79
2021/04/01 03:53:25;;;;;;;34.15;14.75;;;15.20;72.80;;;;;;5075702;28;20059;-80
2021/04/01 03:55:51;;;;;;;36.30;14.02;;;15.20;73.00;;;;;;5074397;28;20053;-80
2021/04/01 04:03:40;;;;;;;38.50;15.10;;;15.10;72.50;;;;;;5075577;28;20033;-79
2021/04/01 04:11:46;;;;;;;35.90;14.90;;;15.20;72.30;;;;;;5070013;28;20061;-79
2021/04/01 04:16:41;;;;;;;32.15;14.20;;;15.10;72.50;;;;;;5055376;28;20039;-79
2021/04/01 04:19:07;;;;;;;38.25;14.75;;;15.10;72.40;;;;;;5054483;28;20017;-79
2021/04/01 04:21:33;;;;;;;32.65;14.88;;;15.10;72.40;;;;;;5055185;28;20032;-78
2021/04/01 04:24:00;;;;;;;32.65;13.57;;;15.10;72.40;;;;;;5054784;28;20044;-79
2021/04/01 04:26:26;;;;;;;30.50;13.85;;;15.10;72.20;;;;;;5053909;28;20115;-79
2021/04/01 04:29:11;;;;;;;35.58;14.88;;;15.10;72.30;;;;;;5074027;28;20439;-80
2021/04/01 04:31:37;;;;;;;33.63;13.77;;;15.10;72.10;;;;;;5074231;28;20036;-79
2021/04/01 04:34:23;;;;;;;31.73;14.38;;;15.10;72.40;;;;;;5073714;28;20021;-79
2021/04/01 04:36:50;;;;;;;31.27;13.43;;;15.00;72.40;;;;;;5072250;28;20025;-79
2021/04/01 04:39:15;;;;;;;36.38;12.90;;;15.00;72.20;;;;;;5075957;28;20033;-79
2021/04/01 04:41:41;;;;;;;28.70;14.18;;;15.00;72.30;;;;;;5074523;28;20059;-79
2021/04/01 04:44:07;;;;;;;29.67;13.10;;;15.00;72.00;;;;;;5074646;28;20544;-79
2021/04/01 04:46:32;;;;;;;33.78;14.80;;;15.00;72.20;;;;;;5074211;28;20048;-79
2021/04/01 04:48:58;;;;;;;35.67;13.68;;;15.00;72.20;;;;;;5074243;28;20510;-78
2021/04/01 04:51:24;;;;;;;35.28;13.60;;;15.00;72.20;;;;;;5072766;28;20078;-79
2021/04/01 04:53:51;;;;;;;36.40;14.77;;;15.10;72.30;;;;;;5074516;28;20027;-80
2021/04/01 04:56:19;;;;;;;34.83;14.32;;;15.00;72.00;;;;;;5074558;28;20040;-79
2021/04/01 04:59:12;;;;;;;30.23;14.82;;;15.10;72.00;;;;;;5074522;28;20021;-79
2021/04/01 05:07:00;;;;;;;33.95;15.00;;;15.10;72.10;;;;;;5074002;28;20095;-79
2021/04/01 05:09:25;;;;;;;29.85;14.48;;;15.10;72.10;;;;;;5074197;28;20491;-79
2021/04/01 05:11:51;;;;;;;36.95;15.55;;;15.10;71.90;;;;;;5074107;28;20124;-79
2021/04/01 05:14:17;;;;;;;31.55;12.90;;;15.10;71.90;;;;;;5073928;28;20031;-79
2021/04/01 05:16:42;;;;;;;37.92;14.10;;;15.10;71.80;;;;;;5074193;28;20493;-79
2021/04/01 05:19:10;;;;;;;33.95;13.80;;;15.10;71.90;;;;;;5073683;28;20490;-80
2021/04/01 05:24:11;;;;;;;33.53;14.15;;;15.10;71.80;;;;;;5073923;28;20731;-79
2021/04/01 05:29:28;;;;;;;30.58;13.20;;;15.10;71.50;;;;;;5073372;28;20087;-79
2021/04/01 05:31:54;;;;;;;31.67;14.20;;;15.20;71.20;;;;;;5072332;28;20024;-79
2021/04/01 05:34:22;;;;;;;31.98;13.93;;;15.20;71.10;;;;;;5073612;28;20024;-79
2021/04/01 05:36:48;;;;;;;28.65;13.45;;;15.20;71.50;;;;;;5072435;28;20021;-80
2021/04/01 05:39:19;;;;;;;32.88;14.15;;;15.20;71.70;;;;;;5073525;28;20028;-79
2021/04/01 05:41:48;;;;;;;34.63;14.27;;;15.20;71.70;;;;;;5072382;28;20021;-79
2021/04/01 05:47:02;;;;;;;30.25;13.48;;;15.20;71.20;;;;;;5053712;28;20071;-79
2021/04/01 05:58:20;;;;;;;35.85;14.05;;;15.30;72.00;;;;;;5073643;28;20135;-79
2021/04/01 06:03:34;;;;;;;29.73;13.63;;;15.40;74.80;;;;;;5072898;28;20028;-79
2021/04/01 06:06:05;;;;;;;30.80;13.38;;;15.30;75.20;;;;;;5072051;28;20043;-79
2021/04/01 06:08:50;;;;;;;26.98;12.43;;;15.40;74.50;;;;;;5072651;28;20551;-79
2021/04/01 06:11:18;;;;;;;33.42;13.45;;;15.40;75.30;;;;;;5073178;28;20032;-79
2021/04/01 06:16:38;;;;;;;24.95;13.63;;;15.40;74.00;;;;;;5072977;28;20036;-79
2021/04/01 06:19:07;;;;;;;32.78;13.57;;;15.50;76.00;;;;;;5073136;28;20089;-79
2021/04/01 06:21:41;;;;;;;26.08;12.98;;;15.50;75.70;;;;;;5072748;28;20021;-79
2021/04/01 06:24:27;;;;;;;29.70;12.23;;;15.50;74.70;;;;;;5071285;28;20037;-79
2021/04/01 06:27:22;;;;;;;35.25;12.75;;;15.60;73.40;;;;;;5072974;28;20059;-79
2021/04/01 06:32:33;;;;;;;32.58;15.25;;;15.60;73.40;;;;;;5073193;28;20036;-79
2021/04/01 06:35:20;;;;;;;39.25;19.38;;;15.60;73.90;;;;;;5072852;28;20060;-79
2021/04/01 06:40:40;;;;;;;51.13;20.33;;;15.80;75.00;;;;;;5072925;28;20544;-79
2021/04/01 06:43:29;;;;;;;46.33;20.08;;;15.80;75.10;;;;;;5052874;28;20479;-79
2021/04/01 06:45:59;;;;;;;45.13;19.10;;;15.80;75.40;;;;;;5058740;28;20040;-79
2021/04/01 06:49:15;;;;;;;40.45;18.65;;;15.80;76.20;;;;;;5072575;28;20035;-79
2021/04/01 06:51:42;;;;;;;40.33;16.50;;;15.90;79.70;;;;;;5072508;28;20123;-79
2021/04/01 06:54:45;;;;;;;49.25;19.65;;;15.90;79.80;;;;;;5072674;28;20154;-79
2021/04/01 06:57:36;;;;;;;53.65;21.38;;;15.90;79.20;;;;;;5070632;28;20063;-73
2021/04/01 07:03:17;;;;;;;49.00;23.83;;;16.00;78.30;;;;;;5069747;28;20029;-72
2021/04/01 07:08:20;;;;;;;59.28;23.40;;;16.10;78.30;;;;;;5073172;28;20119;-73
2021/04/01 07:13:18;;;;;;;61.42;23.40;;;16.20;77.30;;;;;;5068345;28;20113;-73
2021/04/01 07:15:50;;;;;;;51.38;22.27;;;16.20;77.70;;;;;;5069674;28;20025;-73
2021/04/01 07:46:00;;;;;;;53.13;24.40;;;16.40;79.10;;;;;;5070690;28;20039;-79
2021/04/01 07:48:20;;;;;;;50.33;22.85;;;16.50;79.00;;;;;;5069610;28;20065;-79
2021/04/01 07:50:46;;;;;;;52.00;23.80;;;16.50;78.70;;;;;;5069236;28;20041;-79
2021/04/01 07:53:21;;;;;;;53.88;24.77;;;16.50;77.80;;;;;;5070424;28;20035;-79
2021/04/01 08:04:04;;;;;;;53.10;23.40;;;16.50;78.80;;;;;;5073720;28;20452;-80
2021/04/01 08:06:30;;;;;;;53.13;23.83;;;16.50;78.60;;;;;;5073605;28;20097;-79
2021/04/01 08:08:59;;;;;;;51.25;22.23;;;16.50;79.50;;;;;;5073617;28;20356;-79
2021/04/01 08:11:37;;;;;;;50.38;23.38;;;16.60;77.90;;;;;;5073350;28;20025;-80
2021/04/01 08:14:25;;;;;;;58.78;24.95;;;16.60;78.30;;;;;;5073587;28;20025;-79
2021/04/01 08:16:59;;;;;;;51.42;24.08;;;16.70;79.50;;;;;;5073670;28;20028;-79
2021/04/01 08:19:27;;;;;;;49.63;22.75;;;16.80;79.00;;;;;;5072345;28;20033;-79
2021/04/01 08:21:55;;;;;;;59.92;23.88;;;16.80;78.40;;;;;;5073419;28;20031;-79
2021/04/01 08:24:29;;;;;;;58.33;23.15;;;16.90;77.70;;;;;;5073625;28;20024;-79
2021/04/01 08:34:49;;;;;;;56.00;23.58;;;17.00;76.40;;;;;;5073377;28;20349;-79
2021/04/01 08:37:16;;;;;;;53.03;23.48;;;17.10;76.60;;;;;;5073317;28;20028;-79
2021/04/01 08:39:45;;;;;;;55.90;24.73;;;17.20;75.80;;;;;;5073269;28;20024;-79
2021/04/01 08:42:53;;;;;;;60.80;24.15;;;17.20;74.70;;;;;;5073081;28;20017;-79
2021/04/01 08:45:42;;;;;;;55.58;23.48;;;17.20;77.20;;;;;;5073212;28;20027;-79
2021/04/01 08:48:36;;;;;;;54.50;23.08;;;17.30;77.40;;;;;;5071766;28;20486;-79
2021/04/01 08:51:08;;;;;;;55.42;23.60;;;17.30;76.90;;;;;;5073481;28;20043;-79
2021/04/01 08:54:02;;;;;;;52.67;23.63;;;17.30;76.60;;;;;;5087837;28;20031;-79
2021/04/01 08:56:36;;;;;;;54.53;23.98;;;17.40;77.60;;;;;;5084231;28;20166;-79
2021/04/01 08:59:03;;;;;;;52.38;23.27;;;17.40;77.20;;;;;;5067298;28;20028;-79
2021/04/01 09:01:32;;;;;;;57.90;23.90;;;17.50;77.50;;;;;;5073925;28;20028;-79
2021/04/01 09:03:59;;;;;;;58.80;24.08;;;17.60;77.30;;;;;;5070384;28;20031;-79
2021/04/01 09:06:31;;;;;;;54.90;23.02;;;17.70;76.20;;;;;;5073731;28;20093;-79
2021/04/01 09:09:15;;;;;;;53.00;22.77;;;17.70;76.50;;;;;;5074131;28;20482;-79
2021/04/01 09:14:18;;;;;;;55.63;22.75;;;17.80;75.00;;;;;;5073985;28;20028;-79
2021/04/01 09:16:56;;;;;;;53.67;22.35;;;17.90;72.50;;;;;;5072706;28;20033;-79
2021/04/01 09:19:28;;;;;;;57.10;23.27;;;18.00;73.40;;;;;;5064043;28;20037;-79
2021/04/01 09:21:54;;;;;;;52.35;22.40;;;18.00;74.20;;;;;;5073654;28;20521;-79
2021/04/01 09:24:27;;;;;;;60.58;23.90;;;17.90;74.70;;;;;;5073655;28;20028;-79
2021/04/01 09:26:54;;;;;;;52.00;22.65;;;18.00;74.50;;;;;;5073871;28;20382;-79
2021/04/01 09:29:20;;;;;;;61.63;24.08;;;18.00;73.40;;;;;;5073761;28;20020;-79
2021/04/01 09:31:55;;;;;;;47.75;22.40;;;18.10;71.20;;;;;;5072402;28;20094;-79
2021/04/01 09:34:22;;;;;;;61.28;23.55;;;18.20;73.10;;;;;;5073730;28;20021;-78
2021/04/01 09:36:49;;;;;;;51.85;22.58;;;18.30;73.20;;;;;;5065700;28;20025;-79
2021/04/01 09:39:28;;;;;;;50.42;21.50;;;18.40;73.00;;;;;;5068659;28;20389;-78
2021/04/01 09:42:05;;;;;;;63.25;23.95;;;18.40;71.70;;;;;;5057526;28;20025;-78
2021/04/01 09:44:31;;;;;;;59.00;23.33;;;18.40;71.20;;;;;;5050502;28;20052;-78
2021/04/01 09:47:15;;;;;;;46.97;20.63;;;18.40;72.10;;;;;;5069447;28;20021;-78
2021/04/01 09:49:50;;;;;;;48.65;22.08;;;18.60;73.10;;;;;;5071595;28;20078;-78
2021/04/01 09:52:23;;;;;;;60.25;22.48;;;18.70;71.90;;;;;;5071464;28;20528;-78
2021/04/01 09:54:55;;;;;;;49.72;22.42;;;18.90;72.50;;;;;;5071328;28;20028;-78
2021/04/01 09:57:25;;;;;;;53.45;20.95;;;18.80;71.90;;;;;;5071551;28;20486;-80
2021/04/01 10:00:07;;;;;;;52.35;21.92;;;18.90;73.30;;;;;;5071216;28;20494;-78
2021/04/01 10:02:34;;;;;;;47.60;20.80;;;18.80;70.90;;;;;;5071503;28;20032;-78
2021/04/01 10:05:05;;;;;;;54.95;21.23;;;18.90;71.30;;;;;;5071347;28;20024;-78
2021/04/01 10:07:33;;;;;;;40.58;18.98;;;19.00;70.10;;;;;;5070396;28;20553;-78
2021/04/01 10:09:59;;;;;;;56.13;19.13;;;19.00;71.20;;;;;;5071387;28;20063;-78
2021/04/01 10:12:36;;;;;;;46.40;19.55;;;19.20;71.40;;;;;;5071464;28;20031;-78
2021/04/01 10:15:09;;;;;;;43.47;18.77;;;19.30;70.10;;;;;;5071425;28;20368;-78
2021/04/01 10:17:36;;;;;;;40.60;16.40;;;19.40;70.60;;;;;;5070949;28;20043;-78
2021/04/01 10:20:03;;;;;;;37.17;16.63;;;19.70;69.00;;;;;;5079213;28;20103;-78
2021/04/01 10:22:35;;;;;;;34.33;15.05;;;20.10;66.20;;;;;;5080931;28;20048;-78
2021/04/01 10:25:11;;;;;;;;;;;20.20;65.00;;;;;;5086128;28;20382;-78
2021/04/01 10:27:44;;;;;;;34.67;13.32;;;20.30;62.30;;;;;;5074314;28;19915;-78
2021/04/01 10:30:11;;;;;;;35.30;13.13;;;20.50;57.20;;;;;;5082737;28;20013;-78
2021/04/01 10:32:45;;;;;;;23.63;11.90;;;20.70;55.80;;;;;;5081976;28;20028;-78
2021/04/01 10:35:16;;;;;;;31.38;12.70;;;20.80;56.00;;;;;;5075681;28;20032;-78
2021/04/01 10:37:48;;;;;;;31.57;12.90;;;20.70;54.50;;;;;;5087504;28;20024;-78
2021/04/01 10:40:14;;;;;;;;;;;20.70;54.80;;;;;;5079219;28;20394;-78
2021/04/01 10:42:44;;;;;;;27.52;10.55;;;20.60;55.20;;;;;;5086490;28;19973;-78
2021/04/01 10:45:20;;;;;;;28.95;12.20;;;20.60;55.60;;;;;;5075457;28;20035;-78
2021/04/01 10:48:16;;;;;;;29.08;12.10;;;20.70;55.80;;;;;;5058642;28;20051;-78
2021/04/01 10:50:43;;;;;;;35.45;13.65;;;20.80;53.90;;;;;;5079115;28;20433;-78
2021/04/01 10:53:21;;;;;;;25.15;11.20;;;21.00;54.00;;;;;;5084915;28;20538;-78
2021/04/01 10:55:47;;;;;;;23.92;11.57;;;21.10;54.80;;;;;;5058898;28;20695;-78
2021/04/01 10:58:14;;;;;;;33.20;14.02;;;21.20;53.20;;;;;;5083353;28;20114;-78
2021/04/01 11:00:50;;;;;;;35.05;13.52;;;21.40;54.00;;;;;;5077005;28;20112;-78
2021/04/01 11:03:18;;;;;;;36.38;14.38;;;21.50;54.40;;;;;;5071095;28;20051;-78
2021/04/01 11:05:45;;;;;;;32.67;14.85;;;21.60;54.50;;;;;;5073291;28;20031;-78
2021/04/01 11:08:12;;;;;;;37.28;15.30;;;21.60;53.60;;;;;;5075003;28;20043;-78
2021/04/01 11:10:39;;;;;;;42.53;17.38;;;21.70;53.50;;;;;;5080725;28;20501;-78
2021/04/01 11:13:07;;;;;;;48.35;19.45;;;21.80;54.60;;;;;;5075623;28;20071;-78
2021/04/01 11:15:35;;;;;;;54.58;22.55;;;21.80;55.50;;;;;;5087334;28;20017;-78
2021/04/01 11:18:05;;;;;;;56.55;22.63;;;21.90;54.90;;;;;;5076717;28;20024;-78
2021/04/01 11:20:35;;;;;;;52.63;20.85;;;22.00;55.80;;;;;;5080737;28;20025;-78
2021/04/01 11:23:01;;;;;;;62.72;22.73;;;22.00;55.50;;;;;;5084642;28;20410;-78
2021/04/01 11:25:28;;;;;;;61.90;24.75;;;22.10;55.50;;;;;;5074180;28;20032;-73
2021/04/01 11:27:55;;;;;;;67.40;25.67;;;22.20;55.80;;;;;;5086853;28;20111;-73
2021/04/01 11:30:21;;;;;;;75.40;29.20;;;22.20;55.60;;;;;;5082979;28;20020;-73
2021/04/01 11:32:52;;;;;;;73.30;27.75;;;22.30;56.40;;;;;;5093096;28;20024;-73
2021/04/01 11:35:21;;;;;;;79.00;31.50;;;22.30;56.80;;;;;;5077310;28;20024;-74
2021/04/01 11:37:50;;;;;;;82.38;32.55;;;22.30;57.20;;;;;;5076946;28;20394;-74
2021/04/01 11:40:16;;;;;;;93.63;33.70;;;22.40;57.50;;;;;;5086024;28;20049;-73
2021/04/01 11:42:55;;;;;;;83.95;32.47;;;22.50;57.30;;;;;;5089480;28;20395;-73
2021/04/01 11:45:35;;;;;;;94.80;33.53;;;22.50;57.60;;;;;;5075345;28;20404;-73
2021/04/01 11:48:03;;;;;;;87.95;35.08;;;22.50;57.30;;;;;;5073242;28;20035;-73
2021/04/01 11:50:29;;;;;;;91.15;34.50;;;22.60;57.70;;;;;;5071785;28;20028;-73
2021/04/01 11:52:57;;;;;;;97.18;37.75;;;22.60;56.50;;;;;;5087436;28;20024;-74
2021/04/01 11:55:23;;;;;;;104.45;35.83;;;22.60;56.60;;;;;;5077070;28;20016;-74
2021/04/01 11:57:49;;;;;;;91.00;35.28;;;22.70;56.30;;;;;;5085497;28;20032;-73
2021/04/01 12:03:00;;;;;;;89.38;34.22;;;23.00;56.50;;;;;;5084430;28;20395;-74
2021/04/01 12:05:29;;;;;;;97.90;33.42;;;23.00;57.10;;;;;;5075380;28;20095;-74
2021/04/01 12:07:55;;;;;;;87.47;33.92;;;23.10;56.80;;;;;;5078683;28;20545;-74
2021/04/01 12:10:22;;;;;;;90.07;33.10;;;23.10;55.70;;;;;;5085435;28;20084;-73
2021/04/01 12:12:55;;;;;;;82.30;33.47;;;23.20;56.20;;;;;;5083602;28;20035;-74
2021/04/01 12:15:30;;;;;;;89.13;33.53;;;23.20;56.80;;;;;;5076995;28;20031;-73
2021/04/01 12:17:56;;;;;;;85.43;32.67;;;23.30;56.80;;;;;;5088358;28;20028;-73
2021/04/01 12:20:23;;;;;;;92.05;34.45;;;23.30;55.60;;;;;;5083519;28;20058;-73
2021/04/01 12:22:49;;;;;;;88.88;34.70;;;23.40;56.00;;;;;;5084674;28;20044;-73
2021/04/01 12:25:17;;;;;;;87.05;33.60;;;23.40;55.20;;;;;;5075715;28;20025;-73
2021/04/01 12:27:55;;;;;;;101.88;35.30;;;23.50;56.50;;;;;;5059995;28;20370;-73
2021/04/01 12:30:30;;;;;;;88.15;34.13;;;23.50;55.10;;;;;;5077200;28;20109;-74
2021/04/01 12:33:13;;;;;;;92.88;33.45;;;23.50;55.80;;;;;;5087400;28;20024;-74
2021/04/01 12:36:00;;;;;;;87.22;33.10;;;23.50;55.10;;;;;;5073882;28;20012;-73
2021/04/01 12:38:32;;;;;;;86.82;36.55;;;23.50;56.30;;;;;;5078319;28;20020;-73
2021/04/01 12:41:00;;;;;;;81.72;32.38;;;23.50;55.90;;;;;;5073005;28;20087;-73
2021/04/01 12:43:37;;;;;;;89.95;33.13;;;23.50;56.30;;;;;;5084041;28;20422;-73
2021/04/01 12:46:04;;;;;;;91.00;33.15;;;23.40;56.10;;;;;;5076353;28;20533;-73
2021/04/01 12:48:41;;;;;;;87.55;33.55;;;23.60;55.60;;;;;;5078534;28;20089;-73
2021/04/01 12:51:08;;;;;;;86.32;33.03;;;23.60;55.30;;;;;;5083805;28;20028;-73
2021/04/01 12:53:34;;;;;;;78.90;30.63;;;23.60;55.40;;;;;;5071701;28;20024;-73
2021/04/01 13:01:43;;;;;;;89.97;35.17;;;23.50;56.10;;;;;;5070714;28;20040;-73
2021/04/01 13:04:11;;;;;;;92.78;34.78;;;23.60;55.50;;;;;;5072017;28;20039;-73
2021/04/01 13:11:50;;;;;;;87.20;33.72;;;23.80;55.50;;;;;;5066203;28;20024;-73
2021/04/01 13:14:17;;;;;;;88.80;33.40;;;23.90;55.10;;;;;;5078309;28;20136;-73
2021/04/01 13:16:43;;;;;;;90.70;34.28;;;23.90;55.40;;;;;;5079819;28;20020;-73
2021/04/01 13:19:09;;;;;;;88.45;34.67;;;24.00;54.70;;;;;;5072900;28;20035;-73
2021/04/01 13:26:41;;;;;;;85.68;30.83;;;24.10;54.00;;;;;;5080951;28;20032;-74
2021/04/01 13:29:08;;;;;;;81.28;30.35;;;24.30;54.50;;;;;;5082138;28;20063;-73
2021/04/01 13:31:52;;;;;;;83.30;30.40;;;24.30;53.10;;;;;;5088506;28;20022;-73
2021/04/01 13:44:29;;;;;;;74.30;29.30;;;23.80;53.70;;;;;;5080921;28;20482;-73
2021/04/01 13:46:54;;;;;;;79.82;30.75;;;23.90;53.10;;;;;;5078648;28;20020;-73
2021/04/01 13:49:23;;;;;;;86.53;30.73;;;24.00;53.70;;;;;;5087669;28;20577;-73
2021/04/01 13:51:53;;;;;;;80.57;30.65;;;23.90;53.20;;;;;;5075209;28;20024;-73
2021/04/01 13:57:28;;;;;;;86.00;31.42;;;24.20;53.70;;;;;;5069700;28;20071;-73
2021/04/01 14:11:07;;;;;;;78.15;27.83;;;24.20;52.40;;;;;;5083562;28;20146;-73
2021/04/01 14:13:34;;;;;;;80.60;28.58;;;24.10;52.60;;;;;;5071573;28;20020;-73
2021/04/01 14:16:00;;;;;;;75.03;26.80;;;24.20;52.60;;;;;;5077228;28;20028;-73
2021/04/01 14:18:26;;;;;;;68.57;27.55;;;24.10;52.80;;;;;;5081018;28;20035;-73
2021/04/01 14:20:53;;;;;;;78.13;28.10;;;24.00;52.60;;;;;;5084381;28;20028;-73
2021/04/01 14:23:24;;;;;;;74.70;27.27;;;24.00;51.80;;;;;;5074396;28;20040;-73
2021/04/01 14:25:51;;;;;;;75.13;26.75;;;24.10;51.60;;;;;;5080250;28;20070;-73
2021/04/01 14:28:17;;;;;;;67.47;25.25;;;24.10;51.70;;;;;;5079186;28;20200;-74
2021/04/01 14:30:43;;;;;;;72.05;25.63;;;24.10;52.10;;;;;;5078495;28;20024;-74
2021/04/01 14:33:10;;;;;;;73.50;25.55;;;24.00;51.60;;;;;;5086691;28;20050;-73
2021/04/01 14:35:36;;;;;;;80.03;26.27;;;24.00;51.70;;;;;;5074639;28;20025;-73
2021/04/01 14:38:06;;;;;;;72.30;26.42;;;23.90;51.50;;;;;;5085261;28;20020;-74
2021/04/01 14:40:42;;;;;;;69.30;24.05;;;24.00;51.80;;;;;;5081669;28;20020;-73
2021/04/01 14:43:19;;;;;;;66.95;23.88;;;24.20;52.10;;;;;;5072896;28;20027;-73
2021/04/01 14:45:45;;;;;;;62.25;24.50;;;24.40;50.80;;;;;;5062146;28;20070;-73
2021/04/01 14:48:12;;;;;;;72.88;26.75;;;24.50;51.30;;;;;;5065774;28;20183;-74
2021/04/01 14:50:41;;;;;;;79.00;27.45;;;24.50;50.20;;;;;;5071859;28;20449;-76
2021/04/01 14:53:35;;;;;;;72.30;25.48;;;24.70;50.50;;;;;;5067734;28;20547;-76
2021/04/01 14:55:53;;;;;;;72.88;27.17;;;24.70;49.30;;;;;;5055341;28;20016;-73
2021/04/01 14:58:20;;;;;;;75.38;27.90;;;24.80;50.20;;;;;;5077301;28;20055;-73
2021/04/01 15:00:46;;;;;;;76.85;26.50;;;24.80;50.00;;;;;;5064671;28;20115;-73
2021/04/01 15:03:13;;;;;;;64.65;25.25;;;25.00;49.80;;;;;;5068200;28;20035;-73
2021/04/01 15:05:42;;;;;;;71.28;24.52;;;25.00;49.00;;;;;;5071545;28;20024;-73